Time;durP1;ratioP1;P1;durP2;ratioP2;P2;SDS_P1;SDS_P2;PMS_P1;PMS_P2;Temp;Humidity;BMP_temperature;BMP_pressure;BME280_temperature;BME280_humidity;BME280_pressure;Samples;Min_cycle;Max_cycle;Signal;HPM_P1;HPM_P2
2021/12/06 05:16:12;;;;;;;2.35;1.48;;;18.20;52.40;;;;;;5315882;22;46043;-76
2021/12/06 05:18:39;;;;;;;2.55;1.75;;;17.50;51.80;;;;;;5085100;28;45143;-76
2021/12/06 05:21:07;;;;;;;2.10;1.70;;;17.60;51.80;;;;;;5081599;27;45276;-76
2021/12/06 05:23:34;;;;;;;3.15;2.00;;;17.60;51.80;;;;;;5085416;27;45246;-76
2021/12/06 05:26:01;;;;;;;2.38;1.63;;;17.60;51.80;;;;;;5088535;28;46006;-77
2021/12/06 05:28:32;;;;;;;3.42;2.10;;;17.50;51.80;;;;;;5087008;27;45330;-76
2021/12/06 05:30:59;;;;;;;1.90;1.70;;;17.50;51.80;;;;;;5085219;27;45243;-77
2021/12/06 05:33:31;;;;;;;3.08;1.90;;;17.50;51.80;;;;;;5101886;27;47211;-77
2021/12/06 05:36:00;;;;;;;3.30;1.80;;;17.60;51.80;;;;;;5089125;28;45423;-77
2021/12/06 05:38:28;;;;;;;3.63;2.05;;;17.60;51.80;;;;;;5088049;28;45246;-77
2021/12/06 05:40:56;;;;;;;2.20;1.75;;;17.60;51.40;;;;;;5090538;28;45358;-77
2021/12/06 05:43:23;;;;;;;2.85;1.80;;;17.60;51.60;;;;;;5094282;27;46234;-77
2021/12/06 05:45:50;;;;;;;2.53;1.88;;;17.50;51.40;;;;;;5092023;28;45326;-77
2021/12/06 05:48:17;;;;;;;2.80;1.90;;;17.50;51.50;;;;;;5083999;27;45172;-77
2021/12/06 05:50:47;;;;;;;1.75;1.42;;;17.50;51.80;;;;;;5089910;28;45416;-76
2021/12/06 05:53:14;;;;;;;1.92;1.70;;;17.50;52.20;;;;;;5092890;28;45216;-76
2021/12/06 05:55:42;;;;;;;1.88;1.40;;;17.50;52.90;;;;;;5090377;27;45388;-76
2021/12/06 05:58:10;;;;;;;2.30;1.80;;;17.60;53.30;;;;;;5089629;27;45373;-76
2021/12/06 06:00:38;;;;;;;3.13;1.70;;;17.60;52.70;;;;;;5084160;28;45239;-76
2021/12/06 06:03:06;;;;;;;2.42;1.85;;;17.60;51.80;;;;;;5090866;27;45465;-76
2021/12/06 06:05:35;;;;;;;2.75;1.95;;;17.50;51.80;;;;;;5092879;28;45464;-76
2021/12/06 06:08:04;;;;;;;1.83;1.55;;;17.50;51.80;;;;;;5089451;27;45226;-76
2021/12/06 06:10:31;;;;;;;1.63;1.45;;;17.50;52.60;;;;;;5084475;27;45476;-76
2021/12/06 06:12:59;;;;;;;1.33;1.23;;;17.50;53.30;;;;;;5087455;27;46700;-76
2021/12/06 06:15:26;;;;;;;2.22;1.60;;;17.50;54.10;;;;;;5093553;28;45126;-77
2021/12/06 06:17:53;;;;;;;1.55;1.25;;;17.50;52.90;;;;;;5091096;28;45281;-76
2021/12/06 06:20:24;;;;;;;1.95;1.63;;;17.60;53.20;;;;;;5092347;28;45251;-77
2021/12/06 06:22:51;;;;;;;1.85;1.42;;;17.60;52.40;;;;;;5091401;28;48038;-76
2021/12/06 06:25:19;;;;;;;2.63;1.60;;;17.60;53.30;;;;;;5090462;27;45200;-76
2021/12/06 06:27:47;;;;;;;2.53;1.60;;;17.60;54.50;;;;;;5089738;27;45226;-76
2021/12/06 06:30:16;;;;;;;1.83;1.55;;;17.60;54.50;;;;;;5087853;28;45755;-76
2021/12/06 06:32:44;;;;;;;1.95;1.40;;;17.60;54.00;;;;;;5079689;27;45793;-76
2021/12/06 06:35:12;;;;;;;1.98;1.50;;;17.60;54.70;;;;;;5078325;28;45346;-76
2021/12/06 06:37:39;;;;;;;2.45;1.75;;;17.70;54.40;;;;;;5075736;28;45378;-76
2021/12/06 06:40:08;;;;;;;1.70;1.50;;;17.60;54.30;;;;;;5092135;28;45423;-77
2021/12/06 06:42:36;;;;;;;2.33;1.60;;;17.60;54.50;;;;;;5091657;28;46502;-77
2021/12/06 06:45:06;;;;;;;1.58;1.30;;;17.60;54.70;;;;;;5090215;27;45209;-77
2021/12/06 06:47:33;;;;;;;2.50;1.88;;;17.60;54.80;;;;;;5090975;27;45413;-77
2021/12/06 06:50:00;;;;;;;1.95;1.33;;;17.60;54.90;;;;;;5091566;27;45124;-77
2021/12/06 06:52:27;;;;;;;1.77;1.67;;;17.60;55.00;;;;;;5090241;27;45478;-77
2021/12/06 06:54:55;;;;;;;1.92;1.50;;;17.60;56.30;;;;;;5079121;27;45196;-77
2021/12/06 06:57:22;;;;;;;2.60;1.58;;;17.60;55.30;;;;;;5074337;28;45192;-77
2021/12/06 06:59:50;;;;;;;3.38;1.55;;;17.60;55.40;;;;;;5090080;28;45176;-77
2021/12/06 07:02:17;;;;;;;1.90;1.55;;;17.60;55.40;;;;;;5090304;27;46465;-77
2021/12/06 07:04:44;;;;;;;2.63;1.60;;;17.70;55.50;;;;;;5091475;28;45441;-77
2021/12/06 07:07:11;;;;;;;2.60;1.58;;;17.60;55.50;;;;;;5082820;27;45136;-77
2021/12/06 07:09:39;;;;;;;2.10;1.63;;;17.70;55.60;;;;;;5091635;28;45430;-77
2021/12/06 07:12:12;;;;;;;1.92;1.50;;;17.70;55.50;;;;;;5090250;27;47319;-77
2021/12/06 07:14:39;;;;;;;1.67;1.48;;;17.70;55.50;;;;;;5090592;28;45191;-77
2021/12/06 07:17:08;;;;;;;2.25;1.58;;;17.70;55.60;;;;;;5083127;27;46503;-78
2021/12/06 07:19:35;;;;;;;1.90;1.55;;;17.70;55.60;;;;;;5086025;28;45282;-78
2021/12/06 07:22:02;;;;;;;2.80;1.70;;;17.70;55.60;;;;;;5089145;27;45304;-78
2021/12/06 07:24:29;;;;;;;2.83;1.70;;;17.70;55.60;;;;;;5090675;28;45314;-77
2021/12/06 07:26:57;;;;;;;2.75;1.52;;;17.70;55.70;;;;;;5090126;28;45292;-77
2021/12/06 07:29:24;;;;;;;2.20;1.58;;;17.70;56.00;;;;;;5090374;28;45786;-77
2021/12/06 07:31:51;;;;;;;2.60;1.90;;;17.70;55.90;;;;;;5083151;27;46898;-78
2021/12/06 07:34:20;;;;;;;2.35;1.63;;;17.70;55.80;;;;;;5089362;27;45376;-78
2021/12/06 07:36:47;;;;;;;2.13;1.85;;;17.70;55.80;;;;;;5088954;28;45333;-78
2021/12/06 07:39:14;;;;;;;3.20;1.67;;;17.70;55.80;;;;;;5088144;27;45765;-78
2021/12/06 07:41:41;;;;;;;1.88;1.50;;;17.70;56.10;;;;;;5089375;28;46022;-77
2021/12/06 07:44:09;;;;;;;2.42;1.50;;;17.70;55.90;;;;;;5090997;28;45850;-77
2021/12/06 07:46:36;;;;;;;2.28;1.60;;;17.70;56.00;;;;;;5088702;27;45243;-78
2021/12/06 07:49:03;;;;;;;2.63;1.90;;;17.70;55.80;;;;;;5088627;27;45280;-77
2021/12/06 07:51:32;;;;;;;2.90;1.88;;;17.70;55.80;;;;;;5089610;27;45992;-77
2021/12/06 07:53:59;;;;;;;2.58;1.60;;;17.70;55.60;;;;;;5089668;27;46051;-77
2021/12/06 07:56:26;;;;;;;1.90;1.23;;;17.70;55.80;;;;;;5090839;28;45577;-77
2021/12/06 07:58:54;;;;;;;2.33;1.58;;;17.70;55.90;;;;;;5089166;27;45257;-77
2021/12/06 08:01:21;;;;;;;2.05;1.30;;;17.70;55.70;;;;;;5089802;28;46414;-78
2021/12/06 08:03:48;;;;;;;2.25;1.48;;;17.70;55.80;;;;;;5089512;28;45365;-77
2021/12/06 08:06:14;;;;;;;1.63;1.25;;;17.70;55.70;;;;;;5081836;27;45108;-77
2021/12/06 08:08:44;;;;;;;2.00;1.60;;;17.70;55.80;;;;;;5071529;27;45439;-77
2021/12/06 08:11:14;;;;;;;1.98;1.60;;;17.70;55.60;;;;;;5082924;27;48033;-77
2021/12/06 08:13:44;;;;;;;2.30;1.65;;;17.70;55.80;;;;;;5089707;27;45790;-77
2021/12/06 08:16:15;;;;;;;1.95;1.50;;;17.70;55.80;;;;;;5089106;27;45284;-77
2021/12/06 08:18:44;;;;;;;2.40;1.50;;;17.70;55.70;;;;;;5089978;28;45245;-77
2021/12/06 08:21:11;;;;;;;2.97;1.90;;;17.70;55.80;;;;;;5082541;27;47671;-77
2021/12/06 08:23:38;;;;;;;2.22;1.60;;;17.70;55.80;;;;;;5087149;28;45565;-77
2021/12/06 08:26:08;;;;;;;2.17;1.67;;;17.70;55.60;;;;;;5082383;27;45221;-77
2021/12/06 08:28:36;;;;;;;3.20;1.92;;;17.70;55.40;;;;;;5068304;28;45137;-77
2021/12/06 08:31:04;;;;;;;2.92;2.13;;;17.70;55.30;;;;;;5090401;27;48265;-77
2021/12/06 08:33:31;;;;;;;2.88;2.15;;;17.70;55.40;;;;;;5110579;27;45255;-77
2021/12/06 08:35:59;;;;;;;4.10;1.90;;;17.70;55.40;;;;;;5090451;27;45270;-77
2021/12/06 08:38:30;;;;;;;2.92;2.03;;;17.70;55.40;;;;;;5088902;27;45242;-77
2021/12/06 08:40:59;;;;;;;3.15;2.10;;;17.70;55.50;;;;;;5088982;28;47894;-77
2021/12/06 08:43:28;;;;;;;2.85;2.00;;;17.70;55.60;;;;;;5089830;28;45307;-77
2021/12/06 08:45:59;;;;;;;2.13;1.70;;;17.70;55.30;;;;;;5085764;27;45211;-77
2021/12/06 08:48:28;;;;;;;2.40;1.85;;;17.70;55.10;;;;;;5105689;27;45207;-77
2021/12/06 08:50:56;;;;;;;2.33;1.95;;;17.70;54.90;;;;;;5088754;28;48084;-77
2021/12/06 08:53:24;;;;;;;2.35;2.10;;;17.70;55.20;;;;;;5089914;27;45401;-77
2021/12/06 08:55:52;;;;;;;4.20;2.40;;;17.70;55.50;;;;;;5087850;27;45407;-77
2021/12/06 08:58:20;;;;;;;3.88;2.60;;;17.70;55.80;;;;;;5093540;27;45243;-77
2021/12/06 09:00:48;;;;;;;2.38;1.92;;;17.70;55.70;;;;;;5088131;28;48175;-77
2021/12/06 09:03:15;;;;;;;2.88;2.15;;;17.70;55.70;;;;;;5088462;27;45415;-77
2021/12/06 09:05:46;;;;;;;2.53;2.25;;;17.70;55.80;;;;;;5089438;28;45219;-77
2021/12/06 09:08:14;;;;;;;3.10;2.33;;;17.70;55.40;;;;;;5088712;28;45533;-77
2021/12/06 09:10:40;;;;;;;2.95;2.38;;;17.70;55.60;;;;;;5076367;27;48150;-77
2021/12/06 09:13:08;;;;;;;2.47;2.10;;;17.70;55.50;;;;;;5090213;27;45233;-77
2021/12/06 09:15:35;;;;;;;3.00;2.30;;;17.70;55.80;;;;;;5089208;27;45140;-77
2021/12/06 09:18:04;;;;;;;3.08;2.50;;;17.70;55.60;;;;;;5089889;28;45336;-77
2021/12/06 09:20:35;;;;;;;3.22;2.35;;;17.70;55.70;;;;;;5082795;28;47232;-77
2021/12/06 09:23:04;;;;;;;3.58;2.50;;;17.70;55.60;;;;;;5082669;28;46208;-77
2021/12/06 09:25:33;;;;;;;3.55;2.65;;;17.70;55.50;;;;;;5088105;28;45205;-77
2021/12/06 09:28:00;;;;;;;3.28;2.50;;;17.70;55.60;;;;;;5089221;28;45211;-77
2021/12/06 09:30:31;;;;;;;3.30;2.70;;;17.70;55.60;;;;;;5088903;28;46870;-77
2021/12/06 09:33:00;;;;;;;4.53;2.67;;;17.70;55.70;;;;;;5089349;28;45202;-77
2021/12/06 09:35:29;;;;;;;4.53;2.83;;;17.70;55.50;;;;;;5085162;28;45178;-77
2021/12/06 09:37:58;;;;;;;4.82;3.08;;;17.70;55.60;;;;;;5087625;28;46710;-77
2021/12/06 09:40:28;;;;;;;3.47;2.80;;;17.60;55.40;;;;;;5088276;28;45414;-77
2021/12/06 09:42:58;;;;;;;4.00;3.35;;;17.60;55.50;;;;;;5087423;28;46288;-77
2021/12/06 09:45:28;;;;;;;4.18;3.20;;;17.60;55.50;;;;;;5109858;27;45337;-77
2021/12/06 09:47:55;;;;;;;4.03;3.33;;;17.70;55.70;;;;;;5089669;27;45251;-77
2021/12/06 09:50:26;;;;;;;6.25;3.30;;;17.70;55.70;;;;;;5078585;28;47416;-77
2021/12/06 09:52:57;;;;;;;4.30;3.20;;;17.70;55.70;;;;;;5086212;28;45250;-77
2021/12/06 09:55:25;;;;;;;4.22;3.30;;;17.70;55.80;;;;;;5089301;28;45199;-77
2021/12/06 09:57:53;;;;;;;4.57;3.50;;;17.70;55.80;;;;;;5090937;27;45175;-77
2021/12/06 10:00:24;;;;;;;5.00;3.90;;;17.70;55.80;;;;;;5079695;27;46898;-77
2021/12/06 10:02:52;;;;;;;5.57;3.70;;;17.70;55.80;;;;;;5086647;28;46219;-77
2021/12/06 10:05:19;;;;;;;6.45;3.83;;;17.70;55.80;;;;;;5077255;28;45207;-77
2021/12/06 10:07:46;;;;;;;5.40;3.78;;;17.70;55.90;;;;;;5079925;28;45445;-77
2021/12/06 10:10:15;;;;;;;4.95;3.70;;;17.70;55.80;;;;;;5086628;28;47917;-77
2021/12/06 10:12:46;;;;;;;5.43;4.13;;;17.70;57.00;;;;;;5093026;27;45330;-77
2021/12/06 10:15:13;;;;;;;5.45;3.75;;;17.70;55.90;;;;;;5085215;27;45335;-77
2021/12/06 10:17:40;;;;;;;5.10;3.83;;;17.70;56.10;;;;;;5084462;28;45402;-77
2021/12/06 10:20:09;;;;;;;6.05;4.00;;;17.70;56.10;;;;;;5086744;28;45689;-77
2021/12/06 10:22:37;;;;;;;7.53;4.85;;;17.70;56.20;;;;;;5087339;28;45327;-77
2021/12/06 10:25:06;;;;;;;7.47;5.13;;;17.70;56.20;;;;;;5088704;28;45198;-77
2021/12/06 10:27:34;;;;;;;7.03;4.45;;;17.70;56.30;;;;;;5090930;28;45589;-77
2021/12/06 10:30:06;;;;;;;6.20;4.50;;;17.70;56.20;;;;;;5091013;28;45705;-77
2021/12/06 10:32:36;;;;;;;6.20;4.43;;;17.70;56.20;;;;;;5091192;28;45241;-77
2021/12/06 10:35:06;;;;;;;6.35;4.40;;;17.70;56.20;;;;;;5090703;28;45249;-77
2021/12/06 10:37:39;;;;;;;6.25;4.43;;;17.70;56.20;;;;;;5091475;28;45756;-77
2021/12/06 10:40:09;;;;;;;6.82;4.82;;;17.70;56.30;;;;;;5091086;28;46509;-77
2021/12/06 10:42:41;;;;;;;6.40;4.57;;;17.70;56.20;;;;;;5071960;28;45364;-77
2021/12/06 10:45:11;;;;;;;8.00;4.80;;;17.70;56.30;;;;;;5077729;28;45215;-77
2021/12/06 10:47:40;;;;;;;7.10;4.72;;;17.70;56.40;;;;;;5090719;28;45409;-77
2021/12/06 10:50:14;;;;;;;6.93;4.57;;;17.70;56.30;;;;;;5090602;28;45666;-77
2021/12/06 10:52:52;;;;;;;7.25;4.80;;;17.70;56.30;;;;;;5091054;28;45262;-77
2021/12/06 10:55:21;;;;;;;7.00;4.82;;;17.70;56.30;;;;;;5090673;28;45297;-77
2021/12/06 10:57:51;;;;;;;7.90;4.88;;;17.70;56.30;;;;;;5093103;27;45241;-77
2021/12/06 11:00:38;;;;;;;6.95;4.25;;;17.70;56.20;;;;;;5085538;27;45326;-77
2021/12/06 11:03:18;;;;;;;5.60;4.22;;;17.70;56.10;;;;;;5091357;28;45156;-77
2021/12/06 11:05:45;;;;;;;6.68;4.63;;;17.70;56.20;;;;;;5089747;27;45472;-77
2021/12/06 11:08:14;;;;;;;5.45;3.92;;;17.70;56.10;;;;;;5091418;28;45432;-77
2021/12/06 11:10:43;;;;;;;5.95;4.40;;;17.70;56.20;;;;;;5089639;28;45480;-77
2021/12/06 11:13:20;;;;;;;6.75;4.55;;;17.70;56.20;;;;;;5083643;28;45348;-77
2021/12/06 11:16:04;;;;;;;6.68;4.82;;;17.70;56.10;;;;;;5084096;28;45408;-77
2021/12/06 11:18:38;;;;;;;7.35;4.72;;;17.70;56.10;;;;;;5091683;28;45211;-77
2021/12/06 11:21:13;;;;;;;7.43;4.53;;;17.70;56.10;;;;;;5090569;28;45347;-77
2021/12/06 11:23:59;;;;;;;6.70;4.60;;;17.70;56.20;;;;;;5090552;28;45227;-77
2021/12/06 11:26:26;;;;;;;6.50;4.57;;;17.70;56.30;;;;;;5087059;27;45206;-77
2021/12/06 11:28:54;;;;;;;6.82;4.57;;;17.70;56.30;;;;;;5091239;28;45284;-77
2021/12/06 11:31:21;;;;;;;6.97;4.95;;;17.70;56.20;;;;;;5089733;28;46187;-77
2021/12/06 11:33:59;;;;;;;6.53;4.45;;;17.70;56.20;;;;;;5090426;28;45216;-77
2021/12/06 11:36:27;;;;;;;7.88;4.68;;;17.70;56.20;;;;;;5088094;28;45296;-77
2021/12/06 11:39:00;;;;;;;6.90;4.90;;;17.70;56.20;;;;;;5078786;27;45374;-77
2021/12/06 11:41:27;;;;;;;6.78;4.63;;;17.70;56.20;;;;;;5090378;28;47806;-77
2021/12/06 11:43:55;;;;;;;8.18;5.38;;;17.70;56.30;;;;;;5087752;28;45295;-77
2021/12/06 11:46:30;;;;;;;8.35;4.75;;;17.70;56.20;;;;;;5081759;28;45250;-77
2021/12/06 11:48:57;;;;;;;6.10;4.70;;;17.70;56.40;;;;;;5086750;28;47280;-77
2021/12/06 11:51:26;;;;;;;6.97;4.85;;;17.70;56.40;;;;;;5090032;28;45327;-77
2021/12/06 11:53:56;;;;;;;6.85;4.75;;;17.70;56.50;;;;;;5084451;28;45116;-77
2021/12/06 11:56:25;;;;;;;6.88;4.70;;;17.70;56.50;;;;;;5087428;28;45250;-77
2021/12/06 11:58:56;;;;;;;5.43;3.97;;;17.70;56.50;;;;;;5090549;28;45158;-77
2021/12/06 12:01:26;;;;;;;5.32;3.95;;;17.70;56.50;;;;;;5082022;28;45344;-77
2021/12/06 12:03:56;;;;;;;5.72;3.80;;;17.70;56.60;;;;;;5075849;28;45170;-77
2021/12/06 12:06:26;;;;;;;6.53;3.80;;;17.70;56.60;;;;;;5084352;28;45342;-77
2021/12/06 12:09:07;;;;;;;5.53;4.03;;;17.70;56.60;;;;;;5089979;28;45437;-77
2021/12/06 12:11:53;;;;;;;5.72;4.05;;;17.70;56.20;;;;;;5086438;28;47564;-77
2021/12/06 12:14:26;;;;;;;5.88;3.78;;;17.70;56.40;;;;;;5090171;28;45240;-77
2021/12/06 12:16:53;;;;;;;5.07;3.92;;;17.70;56.40;;;;;;5081180;28;45276;-77
2021/12/06 12:19:20;;;;;;;4.68;3.70;;;17.70;56.30;;;;;;5084751;28;45207;-77
2021/12/06 12:21:47;;;;;;;5.82;4.07;;;17.70;56.30;;;;;;5087927;28;47511;-77
2021/12/06 12:24:14;;;;;;;5.40;3.90;;;17.70;56.30;;;;;;5088907;28;45546;-77
2021/12/06 12:26:50;;;;;;;4.80;3.55;;;17.70;56.20;;;;;;5079392;28;45549;-77
2021/12/06 12:29:24;;;;;;;5.50;3.70;;;17.70;56.20;;;;;;5069133;28;45346;-77
2021/12/06 12:31:56;;;;;;;4.93;3.58;;;17.70;56.20;;;;;;5079855;28;46313;-77
2021/12/06 12:34:24;;;;;;;5.18;3.70;;;17.70;56.10;;;;;;5089847;28;45369;-77
2021/12/06 12:36:52;;;;;;;4.38;3.40;;;17.70;56.10;;;;;;5085639;28;45424;-77
2021/12/06 12:39:21;;;;;;;4.80;3.55;;;17.70;56.20;;;;;;5090055;28;45318;-77
2021/12/06 12:41:54;;;;;;;5.47;3.67;;;17.60;56.10;;;;;;5081071;28;46203;-77
2021/12/06 12:44:22;;;;;;;4.13;3.25;;;17.70;56.10;;;;;;5069323;28;45273;-77
2021/12/06 12:46:52;;;;;;;5.30;3.75;;;17.70;56.00;;;;;;5077478;28;45378;-77
2021/12/06 12:49:22;;;;;;;4.15;3.25;;;17.70;56.00;;;;;;5102948;27;45411;-77
2021/12/06 12:51:52;;;;;;;4.85;3.72;;;17.70;56.00;;;;;;5095902;27;48149;-77
2021/12/06 12:54:24;;;;;;;4.25;3.45;;;17.70;56.00;;;;;;5090185;28;45237;-77
2021/12/06 12:56:53;;;;;;;5.43;3.53;;;17.70;56.00;;;;;;5088770;28;45256;-77
2021/12/06 12:59:27;;;;;;;4.93;3.55;;;17.70;55.90;;;;;;5087218;28;45280;-77
2021/12/06 13:02:30;;;;;;;5.25;3.33;;;17.70;56.00;;;;;;5082881;28;45192;-77
2021/12/06 13:05:28;;;;;;;4.25;3.17;;;17.70;55.90;;;;;;5087072;28;45468;-77
2021/12/06 13:08:06;;;;;;;5.30;3.50;;;17.70;56.00;;;;;;5087174;28;45229;-78
2021/12/06 13:10:40;;;;;;;4.90;3.40;;;17.70;55.90;;;;;;5087791;28;45195;-77
2021/12/06 13:13:15;;;;;;;3.85;3.13;;;17.70;55.90;;;;;;5086043;28;47920;-77
2021/12/06 13:15:52;;;;;;;4.57;3.50;;;17.70;55.90;;;;;;5082177;28;45403;-77
2021/12/06 13:18:51;;;;;;;4.90;3.40;;;17.70;55.90;;;;;;5086354;28;45267;-77
2021/12/06 13:21:32;;;;;;;4.95;3.50;;;17.70;56.00;;;;;;5090161;28;45492;-77
2021/12/06 13:24:25;;;;;;;5.43;3.53;;;17.70;56.10;;;;;;5069913;28;47937;-77
2021/12/06 13:26:54;;;;;;;4.40;3.45;;;17.70;56.20;;;;;;5088266;27;45244;-77
2021/12/06 13:29:26;;;;;;;4.72;3.45;;;17.70;56.10;;;;;;5090426;27;45239;-77
2021/12/06 13:31:54;;;;;;;4.43;3.53;;;17.70;56.10;;;;;;5089913;27;45166;-80
2021/12/06 13:34:23;;;;;;;4.63;3.25;;;17.60;56.00;;;;;;5087797;28;46179;-77
2021/12/06 13:36:54;;;;;;;5.15;3.53;;;17.60;56.20;;;;;;5081101;28;45144;-77
2021/12/06 13:39:38;;;;;;;4.70;3.60;;;17.60;56.20;;;;;;5085600;28;45399;-77
2021/12/06 13:42:08;;;;;;;5.05;3.80;;;17.60;56.30;;;;;;5085152;27;45417;-77
2021/12/06 13:44:41;;;;;;;5.30;3.85;;;17.60;56.30;;;;;;5084523;28;45457;-77
2021/12/06 13:47:10;;;;;;;5.85;3.97;;;17.60;56.30;;;;;;5087642;28;45279;-77
2021/12/06 13:49:53;;;;;;;5.35;3.92;;;17.60;56.30;;;;;;5080653;28;45401;-77
2021/12/06 13:52:34;;;;;;;5.60;4.10;;;17.60;56.30;;;;;;5087165;28;45621;-77
2021/12/06 13:55:02;;;;;;;5.90;4.00;;;17.60;56.30;;;;;;5088649;28;46697;-77
2021/12/06 13:57:30;;;;;;;5.80;4.15;;;17.60;56.40;;;;;;5089134;28;45358;-77
2021/12/06 14:00:01;;;;;;;3.95;3.05;;;17.70;56.60;;;;;;5080739;27;45214;-77
2021/12/06 14:02:30;;;;;;;5.63;3.72;;;17.70;56.70;;;;;;5086262;27;45356;-77
2021/12/06 14:04:59;;;;;;;5.82;3.78;;;17.60;56.50;;;;;;5089299;28;45580;-77
2021/12/06 14:07:28;;;;;;;6.07;4.43;;;17.60;57.70;;;;;;5087757;28;45495;-77
2021/12/06 14:09:59;;;;;;;5.15;3.88;;;17.60;56.50;;;;;;5092543;28;45250;-77
2021/12/06 14:12:28;;;;;;;5.30;3.97;;;17.60;56.40;;;;;;5091213;28;45492;-77
2021/12/06 14:15:03;;;;;;;4.65;3.72;;;17.60;56.30;;;;;;5091693;28;46011;-78
2021/12/06 14:17:30;;;;;;;5.35;4.00;;;17.60;56.40;;;;;;5084787;27;45471;-78
2021/12/06 14:19:59;;;;;;;5.85;3.85;;;17.60;56.50;;;;;;5092044;28;45096;-78
2021/12/06 14:22:27;;;;;;;5.25;4.03;;;17.60;56.40;;;;;;5090126;28;45250;-78
2021/12/06 14:24:59;;;;;;;6.18;4.07;;;17.60;56.30;;;;;;5092342;28;45213;-78
2021/12/06 14:27:28;;;;;;;6.05;4.38;;;17.60;56.30;;;;;;5092242;28;46383;-77
2021/12/06 14:29:55;;;;;;;5.78;3.90;;;17.60;56.30;;;;;;5090759;28;45365;-77
2021/12/06 14:32:23;;;;;;;5.88;3.88;;;17.60;56.30;;;;;;5098386;27;45262;-77
2021/12/06 14:34:51;;;;;;;4.70;3.92;;;17.60;56.30;;;;;;5071651;28;45256;-77
2021/12/06 14:37:20;;;;;;;6.38;4.40;;;17.60;56.20;;;;;;5086171;28;45311;-77
2021/12/06 14:39:56;;;;;;;4.97;3.92;;;17.60;56.10;;;;;;5085515;28;45214;-78
2021/12/06 14:42:26;;;;;;;6.32;4.30;;;17.60;56.20;;;;;;5090138;28;45364;-78
2021/12/06 14:44:57;;;;;;;6.53;4.47;;;17.60;56.00;;;;;;5076370;28;45419;-78
2021/12/06 14:47:34;;;;;;;6.07;4.28;;;17.60;55.90;;;;;;5090032;28;45207;-77
2021/12/06 14:50:07;;;;;;;5.60;4.25;;;17.70;56.00;;;;;;5088419;28;45206;-77
2021/12/06 14:52:37;;;;;;;4.93;3.90;;;17.60;56.00;;;;;;5090893;28;45458;-77
2021/12/06 14:55:24;;;;;;;6.38;4.30;;;17.60;56.10;;;;;;5089190;28;48029;-77
2021/12/06 14:57:53;;;;;;;5.82;4.00;;;17.60;56.00;;;;;;5090104;28;45334;-76
2021/12/06 15:00:24;;;;;;;5.60;4.18;;;17.60;56.00;;;;;;5083213;28;45196;-76
2021/12/06 15:02:52;;;;;;;7.07;4.57;;;17.50;56.00;;;;;;5082706;28;45236;-76
2021/12/06 15:05:23;;;;;;;5.82;4.20;;;17.50;55.90;;;;;;5080991;28;46161;-78
2021/12/06 15:07:52;;;;;;;6.43;4.53;;;17.50;55.90;;;;;;5078464;28;45312;-77
2021/12/06 15:10:19;;;;;;;6.88;4.20;;;17.50;55.90;;;;;;5089265;28;45222;-76
2021/12/06 15:12:49;;;;;;;6.97;4.43;;;17.50;55.90;;;;;;5090896;27;45152;-76
2021/12/06 15:15:23;;;;;;;7.07;4.65;;;17.50;55.90;;;;;;5089986;28;46162;-77
2021/12/06 15:17:52;;;;;;;6.32;4.10;;;17.50;56.00;;;;;;5089755;28;45309;-76
2021/12/06 15:20:19;;;;;;;7.25;5.00;;;17.50;56.00;;;;;;5089430;28;45255;-76
2021/12/06 15:22:46;;;;;;;5.97;4.38;;;17.50;56.00;;;;;;5087419;27;45497;-76
2021/12/06 15:25:13;;;;;;;6.53;4.63;;;17.50;56.10;;;;;;5087746;28;47360;-77
2021/12/06 15:27:41;;;;;;;6.03;4.45;;;17.50;56.20;;;;;;5090174;28;45201;-77
2021/12/06 15:30:12;;;;;;;5.53;4.15;;;17.50;55.90;;;;;;5089591;28;45421;-77
2021/12/06 15:32:40;;;;;;;5.68;4.05;;;17.50;56.00;;;;;;5089038;27;45554;-77
2021/12/06 15:35:09;;;;;;;5.85;4.68;;;17.50;55.90;;;;;;5090636;28;45526;-77
2021/12/06 15:37:36;;;;;;;7.70;4.90;;;17.50;56.10;;;;;;5090127;28;45374;-78
2021/12/06 15:40:06;;;;;;;5.35;3.90;;;17.50;56.00;;;;;;5086900;28;45424;-77
2021/12/06 15:42:33;;;;;;;5.13;3.58;;;17.50;55.10;;;;;;5089917;27;45313;-77
2021/12/06 15:45:00;;;;;;;5.00;3.55;;;17.50;53.80;;;;;;5089779;28;48095;-77
2021/12/06 15:47:36;;;;;;;4.15;3.00;;;17.50;53.20;;;;;;5088335;28;45173;-77
2021/12/06 15:50:10;;;;;;;3.63;2.72;;;17.50;52.80;;;;;;5087835;28;45504;-77
2021/12/06 15:52:39;;;;;;;3.35;2.60;;;17.50;51.80;;;;;;5089358;28;46188;-77
2021/12/06 15:55:09;;;;;;;3.03;2.45;;;17.60;51.80;;;;;;5087297;28;45452;-77
2021/12/06 15:57:40;;;;;;;2.72;2.10;;;17.60;51.80;;;;;;5085305;27;45223;-77
2021/12/06 16:00:14;;;;;;;3.08;2.10;;;17.50;51.80;;;;;;5089376;27;45356;-77
2021/12/06 16:02:42;;;;;;;2.83;1.90;;;17.50;51.70;;;;;;5088736;28;45354;-77
2021/12/06 16:05:14;;;;;;;3.75;2.00;;;17.50;51.30;;;;;;5087571;28;47570;-77
2021/12/06 16:07:41;;;;;;;2.80;1.90;;;17.50;51.30;;;;;;5079461;28;45253;-77
2021/12/06 16:10:11;;;;;;;2.17;1.80;;;17.50;51.10;;;;;;5089177;28;45189;-77
2021/12/06 16:12:40;;;;;;;2.10;1.73;;;17.50;50.90;;;;;;5086623;27;45328;-77
2021/12/06 16:15:08;;;;;;;1.92;1.67;;;17.50;50.80;;;;;;5088214;28;48225;-77
2021/12/06 16:17:36;;;;;;;2.83;2.08;;;17.50;50.70;;;;;;5086316;27;45866;-76
2021/12/06 16:20:05;;;;;;;2.42;1.70;;;17.50;50.40;;;;;;5086338;28;45176;-76
2021/12/06 16:22:33;;;;;;;3.13;1.80;;;17.50;50.30;;;;;;5089346;28;45496;-77
2021/12/06 16:25:01;;;;;;;2.50;1.98;;;17.50;50.20;;;;;;5087809;27;47079;-77
2021/12/06 16:27:29;;;;;;;2.72;2.08;;;17.50;50.00;;;;;;5084325;28;45174;-77
2021/12/06 16:29:56;;;;;;;2.70;1.67;;;17.50;50.30;;;;;;5089237;28;45143;-77
2021/12/06 16:32:29;;;;;;;3.03;2.10;;;17.50;50.00;;;;;;5096388;27;45167;-77
2021/12/06 16:34:56;;;;;;;2.97;1.95;;;17.50;51.80;;;;;;5080781;27;45355;-77
2021/12/06 16:37:27;;;;;;;2.75;2.03;;;17.50;51.80;;;;;;5089319;28;45259;-77
2021/12/06 16:39:58;;;;;;;4.30;2.20;;;17.50;50.70;;;;;;5073654;28;45211;-77
2021/12/06 16:42:28;;;;;;;2.35;1.77;;;17.50;50.20;;;;;;5088924;27;45397;-77
2021/12/06 16:44:58;;;;;;;3.63;1.83;;;17.50;50.70;;;;;;5086276;28;47815;-77
2021/12/06 16:47:28;;;;;;;2.25;1.77;;;17.50;51.40;;;;;;5080718;28;45557;-77
2021/12/06 16:50:07;;;;;;;2.10;1.63;;;17.50;50.40;;;;;;5085546;28;45329;-77
2021/12/06 16:52:38;;;;;;;2.45;2.03;;;17.50;49.60;;;;;;5087797;27;46301;-80
2021/12/06 16:55:15;;;;;;;2.22;1.80;;;17.60;49.50;;;;;;5089312;28;47483;-77
2021/12/06 16:57:45;;;;;;;2.33;1.85;;;17.50;49.50;;;;;;5080663;28;45962;-76
2021/12/06 17:00:15;;;;;;;2.83;1.60;;;17.60;49.50;;;;;;5082434;27;45472;-78
2021/12/06 17:02:43;;;;;;;2.58;1.90;;;17.60;49.50;;;;;;5086201;27;45372;-76
2021/12/06 17:05:12;;;;;;;2.03;1.60;;;17.60;49.60;;;;;;5085230;27;46498;-78
2021/12/06 17:07:41;;;;;;;2.75;1.80;;;17.60;49.60;;;;;;5083052;28;45280;-77
2021/12/06 17:10:29;;;;;;;2.22;1.60;;;17.60;49.70;;;;;;5079511;28;45497;-81
2021/12/06 17:12:58;;;;;;;2.17;1.55;;;17.70;49.90;;;;;;5086971;28;46040;-76
2021/12/06 17:15:29;;;;;;;2.10;1.52;;;17.60;49.90;;;;;;5082312;28;45574;-76
2021/12/06 17:17:59;;;;;;;2.25;1.63;;;17.50;49.80;;;;;;5084169;28;45462;-77
2021/12/06 17:20:31;;;;;;;2.65;1.75;;;17.60;49.70;;;;;;5090780;27;45379;-77
2021/12/06 17:23:01;;;;;;;2.47;1.80;;;17.60;49.40;;;;;;5084169;28;45469;-78
2021/12/06 17:25:32;;;;;;;2.00;1.77;;;17.60;49.10;;;;;;5080546;28;46327;-78
2021/12/06 17:28:16;;;;;;;3.00;2.05;;;17.70;48.90;;;;;;5088532;28;45316;-77
2021/12/06 17:30:49;;;;;;;2.00;1.52;;;17.70;48.50;;;;;;5087513;28;46317;-77
2021/12/06 17:33:22;;;;;;;1.90;1.50;;;17.70;48.40;;;;;;5083187;27;45426;-77
2021/12/06 17:35:53;;;;;;;2.67;1.70;;;17.70;48.20;;;;;;5085176;28;48311;-77
2021/12/06 17:38:20;;;;;;;2.65;1.73;;;17.70;48.10;;;;;;5083272;27;45309;-78
2021/12/06 17:40:48;;;;;;;2.70;1.52;;;17.70;47.90;;;;;;5080854;27;45563;-78
2021/12/06 17:43:15;;;;;;;2.47;1.70;;;17.70;47.90;;;;;;5087567;28;46278;-78
2021/12/06 17:45:43;;;;;;;2.92;1.40;;;17.70;47.80;;;;;;5088517;28;46335;-77
2021/12/06 17:48:11;;;;;;;2.20;1.63;;;17.60;47.90;;;;;;5087777;28;45515;-77
2021/12/06 17:50:38;;;;;;;1.95;1.48;;;17.60;48.10;;;;;;5085811;27;45402;-77
2021/12/06 17:53:05;;;;;;;1.90;1.60;;;17.60;48.00;;;;;;5088310;27;45724;-77
2021/12/06 17:55:32;;;;;;;2.35;1.88;;;17.60;48.10;;;;;;5087309;27;45497;-77
2021/12/06 17:58:15;;;;;;;2.70;1.55;;;17.60;48.10;;;;;;5087165;28;45967;-77
2021/12/06 18:00:44;;;;;;;2.72;1.98;;;17.50;49.20;;;;;;5084085;28;45475;-77
2021/12/06 18:03:11;;;;;;;2.33;1.80;;;17.60;48.10;;;;;;5086856;27;45201;-77
2021/12/06 18:05:38;;;;;;;3.47;2.15;;;17.50;48.10;;;;;;5088237;28;45470;-76
2021/12/06 18:08:05;;;;;;;2.17;1.75;;;17.50;48.00;;;;;;5083023;27;45232;-76
2021/12/06 18:10:32;;;;;;;2.28;1.80;;;17.50;48.00;;;;;;5084678;28;45469;-76
2021/12/06 18:13:01;;;;;;;2.90;1.95;;;17.50;48.10;;;;;;5084835;27;45406;-77
2021/12/06 18:15:28;;;;;;;3.40;2.10;;;17.50;48.00;;;;;;5089308;27;45270;-77
2021/12/06 18:17:55;;;;;;;2.38;2.03;;;17.50;47.80;;;;;;5086224;28;45289;-77